createdAt,value
2023-03-02T00:02:24.571Z,3.03
2023-03-02T00:04:59.146Z,3.10
2023-03-02T00:07:32.643Z,3.10
2023-03-02T00:10:00.022Z,3.10
2023-03-02T00:12:31.333Z,3.10
2023-03-02T00:14:58.462Z,3.03
2023-03-02T00:17:27.865Z,3.00
2023-03-02T00:20:10.184Z,3.00
2023-03-02T00:22:43.722Z,3.03
2023-03-02T00:25:13.664Z,3.10
2023-03-02T00:27:41.661Z,3.10
2023-03-02T00:30:11.857Z,3.03
2023-03-02T00:32:39.683Z,3.10
2023-03-02T00:35:08.048Z,3.00
2023-03-02T00:37:37.397Z,3.10
2023-03-02T00:40:09.686Z,3.10
2023-03-02T00:42:37.858Z,3.00
2023-03-02T00:45:06.749Z,3.03
2023-03-02T00:47:36.403Z,3.00
2023-03-02T00:50:06.090Z,3.10
2023-03-02T00:52:34.469Z,3.03
2023-03-02T00:55:01.896Z,3.03
2023-03-02T00:57:29.371Z,3.03
2023-03-02T00:59:56.708Z,3.03
2023-03-02T01:02:28.000Z,3.07
2023-03-02T01:04:55.633Z,3.07
2023-03-02T01:07:26.034Z,3.07
2023-03-02T01:09:53.159Z,3.10
2023-03-02T01:12:20.287Z,3.03
2023-03-02T01:14:49.069Z,3.10
2023-03-02T01:17:16.824Z,3.07
2023-03-02T01:19:44.253Z,3.07
2023-03-02T01:22:11.547Z,3.00
2023-03-02T01:24:38.538Z,3.03
2023-03-02T01:27:05.585Z,3.03
2023-03-02T01:29:32.613Z,3.03
2023-03-02T01:32:00.538Z,3.10
2023-03-02T01:34:27.625Z,3.10
2023-03-02T01:36:54.619Z,3.10
2023-03-02T01:39:22.493Z,3.10
2023-03-02T01:41:52.694Z,3.10
2023-03-02T01:44:57.062Z,3.13
2023-03-02T01:47:34.566Z,3.10
2023-03-02T01:50:19.161Z,3.10
2023-03-02T01:52:48.102Z,3.10
2023-03-02T01:55:24.622Z,3.10
2023-03-02T01:57:55.017Z,3.10
2023-03-02T02:00:36.254Z,3.10
2023-03-02T02:03:14.853Z,3.00
2023-03-02T02:05:47.982Z,3.00
2023-03-02T02:08:15.470Z,3.10
2023-03-02T02:10:42.466Z,3.10
2023-03-02T02:13:11.368Z,3.03
2023-03-02T02:15:40.929Z,3.10
2023-03-02T02:18:08.100Z,3.10
2023-03-02T02:20:47.306Z,3.03
2023-03-02T02:24:03.147Z,3.07
2023-03-02T02:26:53.313Z,3.07
2023-03-02T02:29:34.395Z,3.10
2023-03-02T02:32:26.436Z,3.03
2023-03-02T02:35:19.734Z,3.17
2023-03-02T02:37:54.520Z,3.10
2023-03-02T02:40:56.746Z,3.07
2023-03-02T02:43:32.278Z,3.13
2023-03-02T02:46:02.056Z,3.10
2023-03-02T02:48:32.669Z,3.13
2023-03-02T02:51:01.183Z,3.10
2023-03-02T02:53:42.846Z,3.03
2023-03-02T02:56:12.195Z,3.07
2023-03-02T02:58:53.963Z,3.03
2023-03-02T03:01:25.877Z,3.07
2023-03-02T03:04:03.360Z,3.07
2023-03-02T03:06:42.061Z,3.00
2023-03-02T03:09:13.254Z,3.07
2023-03-02T03:12:04.796Z,3.00
2023-03-02T03:14:41.312Z,3.00
2023-03-02T03:17:13.350Z,3.10
2023-03-02T03:19:52.906Z,3.03
2023-03-02T03:22:20.504Z,3.10
2023-03-02T03:24:50.639Z,3.03
2023-03-02T03:27:19.370Z,3.00
2023-03-02T03:29:50.404Z,3.00
2023-03-02T03:32:20.537Z,3.07
2023-03-02T03:34:49.937Z,3.03
2023-03-02T03:37:24.016Z,3.10
2023-03-02T03:39:51.725Z,3.07
2023-03-02T03:42:19.869Z,3.07
2023-03-02T03:44:47.586Z,3.10
2023-03-02T03:47:15.515Z,3.00
2023-03-02T03:49:43.598Z,3.03
2023-03-02T03:52:11.624Z,3.10
2023-03-02T03:54:38.687Z,3.07
2023-03-02T03:57:06.321Z,3.13
2023-03-02T03:59:34.017Z,3.10
2023-03-02T04:02:03.255Z,3.07
2023-03-02T04:04:40.605Z,3.03
2023-03-02T04:07:14.562Z,3.10
2023-03-02T04:09:43.934Z,3.10
2023-03-02T04:12:13.317Z,3.07
2023-03-02T04:14:46.448Z,3.03
2023-03-02T04:17:13.622Z,3.00
2023-03-02T04:19:45.573Z,3.00
2023-03-02T04:22:12.604Z,3.07
2023-03-02T04:24:39.572Z,3.07
2023-03-02T04:27:06.678Z,3.10
2023-03-02T04:29:36.103Z,3.00
2023-03-02T04:32:05.486Z,3.10
2023-03-02T04:34:34.496Z,3.10
2023-03-02T04:37:02.567Z,3.10
2023-03-02T04:39:29.951Z,3.10
2023-03-02T04:41:57.036Z,3.10
2023-03-02T04:44:23.980Z,3.03
2023-03-02T04:46:51.769Z,3.03
2023-03-02T04:49:20.467Z,3.13
2023-03-02T04:51:49.925Z,3.07
2023-03-02T04:54:26.648Z,3.00
2023-03-02T04:56:54.824Z,3.10
2023-03-02T04:59:27.646Z,3.03
2023-03-02T05:02:00.117Z,3.03
2023-03-02T05:04:28.984Z,3.03
2023-03-02T05:06:57.523Z,3.00
2023-03-02T05:09:30.720Z,3.07
2023-03-02T05:12:00.381Z,3.07
2023-03-02T05:14:28.994Z,3.07
2023-03-02T05:16:56.039Z,3.07
2023-03-02T05:19:23.215Z,3.07
2023-03-02T05:21:50.737Z,3.10
2023-03-02T05:24:18.356Z,3.10
2023-03-02T05:26:45.342Z,3.10
2023-03-02T05:29:12.356Z,3.10
2023-03-02T05:31:43.894Z,3.00
2023-03-02T05:34:16.296Z,3.10
2023-03-02T05:36:45.164Z,3.13
2023-03-02T05:39:12.952Z,3.10
2023-03-02T05:41:40.580Z,3.10
2023-03-02T05:44:09.602Z,3.10
2023-03-02T05:46:37.522Z,3.10
2023-03-02T05:49:04.995Z,3.10
2023-03-02T05:51:32.057Z,3.10
2023-03-02T05:53:59.496Z,3.10
2023-03-02T05:56:26.910Z,3.10
2023-03-02T05:58:54.211Z,3.10
2023-03-02T06:01:21.645Z,3.00
2023-03-02T06:03:49.062Z,3.10
2023-03-02T06:06:16.857Z,3.10
2023-03-02T06:08:44.751Z,3.00
2023-03-02T06:11:12.712Z,3.03
2023-03-02T06:13:40.343Z,3.07
2023-03-02T06:16:08.984Z,3.00
2023-03-02T06:18:39.737Z,3.00
2023-03-02T06:21:08.211Z,3.10
2023-03-02T06:23:35.661Z,3.10
2023-03-02T06:26:10.683Z,3.00
2023-03-02T06:28:51.340Z,3.00
2023-03-02T06:31:19.924Z,2.97
2023-03-02T06:33:46.931Z,3.03
2023-03-02T06:36:14.973Z,3.00
2023-03-02T06:38:42.077Z,3.00
2023-03-02T06:41:09.083Z,3.03
2023-03-02T06:43:36.091Z,3.10
2023-03-02T06:46:03.120Z,3.03
2023-03-02T06:48:30.167Z,3.00
2023-03-02T06:50:57.802Z,3.00
2023-03-02T06:53:24.804Z,3.03
2023-03-02T06:55:52.346Z,3.10
2023-03-02T06:58:19.536Z,3.00
2023-03-02T07:00:46.594Z,3.00
2023-03-02T07:03:13.764Z,2.90
2023-03-02T07:05:40.716Z,2.93
2023-03-02T07:08:07.844Z,3.00
2023-03-02T07:10:34.805Z,2.90
2023-03-02T07:13:02.376Z,2.97
2023-03-02T07:15:29.323Z,3.00
2023-03-02T07:17:56.311Z,2.93
2023-03-02T07:20:23.700Z,2.93
2023-03-02T07:22:51.185Z,3.00
2023-03-02T07:25:18.238Z,3.00
2023-03-02T07:27:45.199Z,2.90
2023-03-02T07:30:14.705Z,2.93
2023-03-02T07:32:42.505Z,2.90
2023-03-02T07:35:10.288Z,2.90
2023-03-02T07:37:37.287Z,2.80
2023-03-02T07:40:06.565Z,2.90
2023-03-02T07:42:34.242Z,2.93
2023-03-02T07:45:04.349Z,2.90
2023-03-02T07:47:32.350Z,2.87
2023-03-02T07:49:59.712Z,2.90
2023-03-02T07:52:30.684Z,2.83
2023-03-02T07:54:58.191Z,2.80
2023-03-02T07:57:25.221Z,2.83
2023-03-02T07:59:52.202Z,2.80
2023-03-02T08:02:20.348Z,2.90
2023-03-02T08:04:47.963Z,2.80
2023-03-02T08:07:15.419Z,2.83
2023-03-02T08:09:42.401Z,2.80
2023-03-02T08:12:09.729Z,2.80
2023-03-02T08:14:37.442Z,2.87
2023-03-02T08:17:06.453Z,2.83
2023-03-02T08:19:33.724Z,2.90
2023-03-02T08:22:02.407Z,2.80
2023-03-02T08:24:30.118Z,2.87
2023-03-02T08:27:02.036Z,2.80
2023-03-02T08:29:29.490Z,2.77
2023-03-02T08:31:56.689Z,2.80
2023-03-02T08:34:23.863Z,2.80
2023-03-02T08:36:51.314Z,2.80
2023-03-02T08:39:18.866Z,2.80
2023-03-02T08:41:46.042Z,2.80
2023-03-02T08:44:13.037Z,2.80
2023-03-02T08:46:39.978Z,2.70
2023-03-02T08:49:07.359Z,2.70
2023-03-02T08:51:34.666Z,2.80
2023-03-02T08:54:02.459Z,2.73
2023-03-02T08:56:34.595Z,2.70
2023-03-02T08:59:07.935Z,2.67
2023-03-02T09:03:36.754Z,2.73
2023-03-02T09:06:03.805Z,2.70
2023-03-02T09:08:30.748Z,2.70
2023-03-02T09:10:57.693Z,2.60
2023-03-02T09:13:24.658Z,2.70
2023-03-02T09:15:51.616Z,2.70
2023-03-02T09:18:18.566Z,2.50
2023-03-02T09:20:53.199Z,2.50
2023-03-02T09:23:20.787Z,2.53
2023-03-02T09:25:48.738Z,2.40
2023-03-02T09:28:17.690Z,2.40
2023-03-02T09:30:57.778Z,2.43
2023-03-02T09:33:25.868Z,2.77
2023-03-02T09:35:53.145Z,2.40
2023-03-02T09:38:20.473Z,2.40
2023-03-02T09:40:53.526Z,2.30
2023-03-02T09:44:02.237Z,2.13
2023-03-02T09:46:49.926Z,2.20
2023-03-02T09:50:24.208Z,2.30
2023-03-02T09:53:42.118Z,2.30
2023-03-02T09:56:19.524Z,2.10
2023-03-02T09:59:08.935Z,2.23
2023-03-02T10:01:50.942Z,2.23
2023-03-02T10:04:27.781Z,2.07
2023-03-02T10:07:38.585Z,2.20
2023-03-02T10:10:45.295Z,2.13
2023-03-02T10:13:47.669Z,2.03
2023-03-02T10:16:47.264Z,1.97
2023-03-02T10:19:37.674Z,2.20
2023-03-02T10:22:30.610Z,2.27
2023-03-02T10:25:34.504Z,2.40
2023-03-02T10:28:24.283Z,2.50
2023-03-02T10:31:14.456Z,2.53
2023-03-02T10:33:42.020Z,2.43
2023-03-02T10:36:41.905Z,2.20
2023-03-02T10:39:17.828Z,2.37
2023-03-02T10:42:04.968Z,2.20
2023-03-02T10:44:49.100Z,2.17
2023-03-02T10:47:29.131Z,2.20
2023-03-02T10:49:58.125Z,2.10
2023-03-02T10:52:29.552Z,2.10
2023-03-02T10:55:26.300Z,2.00
2023-03-02T10:58:32.311Z,2.10
2023-03-02T11:01:16.917Z,2.13
2023-03-02T11:03:56.447Z,2.20
2023-03-02T11:06:24.263Z,2.00
2023-03-02T11:09:06.975Z,2.10
2023-03-02T11:11:35.074Z,2.00
2023-03-02T11:14:17.471Z,2.10
2023-03-02T11:16:44.490Z,1.87
2023-03-02T11:19:39.291Z,1.80
2023-03-02T11:22:44.609Z,1.80
2023-03-02T11:25:29.907Z,1.80
2023-03-02T11:28:47.022Z,1.73
2023-03-02T11:31:27.364Z,1.77
2023-03-02T11:34:22.579Z,1.80
2023-03-02T11:37:14.051Z,1.97
2023-03-02T11:39:55.596Z,1.90
2023-03-02T11:42:34.368Z,1.90
2023-03-02T11:45:27.056Z,1.80
2023-03-02T11:48:17.488Z,1.80
2023-03-02T11:50:56.004Z,1.83
2023-03-02T11:53:33.928Z,1.80
2023-03-02T11:56:00.957Z,1.70
2023-03-02T11:58:31.072Z,1.60
2023-03-02T12:00:59.009Z,1.70
2023-03-02T12:03:31.971Z,1.70
2023-03-02T12:06:16.513Z,1.70
2023-03-02T12:08:48.578Z,1.73
2023-03-02T12:11:18.556Z,1.70
2023-03-02T12:14:38.285Z,1.77
2023-03-02T12:17:24.385Z,1.80
2023-03-02T12:20:08.002Z,1.80
2023-03-02T12:22:37.443Z,1.90
2023-03-02T12:25:37.910Z,1.80
2023-03-02T12:28:04.916Z,1.80
2023-03-02T12:30:32.604Z,1.80
2023-03-02T12:33:20.322Z,1.70
2023-03-02T12:35:57.042Z,1.70
2023-03-02T12:38:38.647Z,1.80
2023-03-02T12:41:32.010Z,1.80
2023-03-02T12:44:22.189Z,1.77
2023-03-02T12:46:51.286Z,1.80
2023-03-02T12:49:55.146Z,1.90
2023-03-02T12:52:28.892Z,1.90
2023-03-02T12:55:19.857Z,2.10
2023-03-02T12:57:53.674Z,2.03
2023-03-02T13:00:27.406Z,2.20
2023-03-02T13:02:58.403Z,2.17
2023-03-02T13:05:32.411Z,1.97
2023-03-02T13:08:24.210Z,2.00
2023-03-02T13:10:58.680Z,2.07
2023-03-02T13:13:44.730Z,2.07
2023-03-02T13:16:29.017Z,2.13
2023-03-02T13:19:02.117Z,2.00
2023-03-02T13:21:35.353Z,2.10
2023-03-02T13:24:02.552Z,1.90
2023-03-02T13:26:37.291Z,1.80
2023-03-02T13:29:22.901Z,1.80
2023-03-02T13:31:50.550Z,1.77
2023-03-02T13:34:27.786Z,1.80
2023-03-02T13:36:55.706Z,2.00
2023-03-02T13:39:31.960Z,2.00
2023-03-02T13:42:02.953Z,2.03
2023-03-02T13:44:35.410Z,2.10
2023-03-02T13:47:03.837Z,1.90
2023-03-02T13:49:35.536Z,1.83
2023-03-02T13:52:26.903Z,1.80
2023-03-02T13:54:54.481Z,1.80
2023-03-02T13:57:31.656Z,1.80
2023-03-02T13:59:59.959Z,1.80
2023-03-02T14:02:30.466Z,1.87
2023-03-02T14:04:58.328Z,1.80
2023-03-02T14:07:25.470Z,1.90
2023-03-02T14:09:52.892Z,2.00
2023-03-02T14:12:26.191Z,1.97
2023-03-02T14:14:57.418Z,1.80
2023-03-02T14:17:26.201Z,1.90
2023-03-02T14:19:55.179Z,1.80
2023-03-02T14:22:26.656Z,1.80
2023-03-02T14:24:53.709Z,1.90
2023-03-02T14:27:28.910Z,1.87
2023-03-02T14:29:55.893Z,1.90
2023-03-02T14:32:23.320Z,2.00
2023-03-02T14:34:50.386Z,1.90
2023-03-02T14:37:22.182Z,1.80
2023-03-02T14:39:55.501Z,1.83
2023-03-02T14:42:23.850Z,1.90
2023-03-02T14:44:52.278Z,1.90
2023-03-02T14:47:21.099Z,1.90
2023-03-02T14:49:49.346Z,1.90
2023-03-02T14:52:39.785Z,1.87
2023-03-02T14:55:25.751Z,1.93
2023-03-02T14:58:01.110Z,1.80
2023-03-02T15:00:28.589Z,1.80
2023-03-02T15:02:56.181Z,1.87
2023-03-02T15:05:23.350Z,1.90
2023-03-02T15:07:50.636Z,1.87
2023-03-02T15:10:22.029Z,1.80
2023-03-02T15:12:49.337Z,1.83
2023-03-02T15:15:16.920Z,1.87
2023-03-02T15:17:44.363Z,1.97
2023-03-02T15:20:16.046Z,1.93
2023-03-02T15:22:43.709Z,2.03
2023-03-02T15:25:11.002Z,2.00
2023-03-02T15:27:37.985Z,2.07
2023-03-02T15:30:06.125Z,2.20
2023-03-02T15:32:33.386Z,2.17
2023-03-02T15:35:01.334Z,2.40
2023-03-02T15:37:28.785Z,2.50
2023-03-02T15:39:56.631Z,2.43
2023-03-02T15:42:23.842Z,2.50
2023-03-02T15:44:51.293Z,2.20
2023-03-02T15:47:18.357Z,2.40
2023-03-02T15:49:45.311Z,2.30
2023-03-02T15:52:12.964Z,2.30
2023-03-02T15:54:40.572Z,2.47
2023-03-02T15:57:09.951Z,2.50
2023-03-02T15:59:37.415Z,2.50
2023-03-02T16:02:04.879Z,2.63
2023-03-02T16:04:33.925Z,2.60
2023-03-02T16:07:01.603Z,2.60
2023-03-02T16:09:30.783Z,2.60
2023-03-02T16:11:58.239Z,2.60
2023-03-02T16:14:25.922Z,2.60
2023-03-02T16:16:55.226Z,2.60
2023-03-02T16:19:22.853Z,2.67
2023-03-02T16:21:50.280Z,2.63
2023-03-02T16:24:17.743Z,2.70
2023-03-02T16:26:45.372Z,2.67
2023-03-02T16:29:13.957Z,2.60
2023-03-02T16:31:44.812Z,2.63
2023-03-02T16:34:12.480Z,2.63
2023-03-02T16:36:42.035Z,2.60
2023-03-02T16:39:11.134Z,2.70
2023-03-02T16:41:42.754Z,2.60
2023-03-02T16:44:12.255Z,2.60
2023-03-02T16:46:41.694Z,2.60
2023-03-02T16:49:09.969Z,2.70
2023-03-02T16:51:38.183Z,2.60
2023-03-02T16:54:05.525Z,2.70
2023-03-02T16:56:33.215Z,2.73
2023-03-02T16:59:00.619Z,2.70
2023-03-02T17:01:28.406Z,2.70
2023-03-02T17:03:56.449Z,2.73
2023-03-02T17:06:24.465Z,2.80
2023-03-02T17:08:52.048Z,2.80
2023-03-02T17:11:20.512Z,2.80
2023-03-02T17:13:47.910Z,2.80
2023-03-02T17:16:16.699Z,2.70
2023-03-02T17:18:46.757Z,2.80
2023-03-02T17:21:16.625Z,2.90
2023-03-02T17:23:47.893Z,2.80
2023-03-02T17:26:16.466Z,2.80
2023-03-02T17:28:44.050Z,2.80
2023-03-02T17:31:11.654Z,2.83
2023-03-02T17:33:39.371Z,2.80
2023-03-02T17:36:11.776Z,2.80
2023-03-02T17:38:40.145Z,2.80
2023-03-02T17:41:10.458Z,2.77
2023-03-02T17:43:41.652Z,2.80
2023-03-02T17:46:23.221Z,2.80
2023-03-02T17:48:55.907Z,2.80
2023-03-02T17:51:24.498Z,2.80
2023-03-02T17:53:54.505Z,2.80
2023-03-02T17:56:26.880Z,2.80
2023-03-02T17:58:59.413Z,2.80
2023-03-02T18:01:29.054Z,2.80
2023-03-02T18:03:56.446Z,2.83
2023-03-02T18:06:23.732Z,2.77
2023-03-02T18:08:52.330Z,2.87
2023-03-02T18:11:23.366Z,2.87
2023-03-02T18:13:50.937Z,2.80
2023-03-02T18:16:18.001Z,2.77
2023-03-02T18:18:45.081Z,2.80
2023-03-02T18:21:12.480Z,2.80
2023-03-02T18:23:39.703Z,2.80
2023-03-02T18:26:08.587Z,2.80
2023-03-02T18:28:35.595Z,2.90
2023-03-02T18:31:03.038Z,2.80
2023-03-02T18:33:30.161Z,2.83
2023-03-02T18:35:57.282Z,2.80
2023-03-02T18:38:30.613Z,2.83
2023-03-02T18:41:02.869Z,2.80
2023-03-02T18:43:34.694Z,2.80
2023-03-02T18:46:04.141Z,2.83
2023-03-02T18:48:32.533Z,2.73
2023-03-02T18:50:59.693Z,2.80
2023-03-02T18:53:27.104Z,2.80
2023-03-02T18:55:57.293Z,2.80
2023-03-02T18:58:26.499Z,2.83
2023-03-02T19:00:54.487Z,2.80
2023-03-02T19:03:22.276Z,2.90
2023-03-02T19:05:49.742Z,2.80
2023-03-02T19:08:16.792Z,2.80
2023-03-02T19:10:43.771Z,2.80
2023-03-02T19:13:11.849Z,2.77
2023-03-02T19:15:40.575Z,2.87
2023-03-02T19:18:08.429Z,2.80
2023-03-02T19:20:35.514Z,2.80
2023-03-02T19:23:02.638Z,2.83
2023-03-02T19:25:29.646Z,2.80
2023-03-02T19:27:57.134Z,2.87
2023-03-02T19:30:27.346Z,2.80
2023-03-02T19:32:54.881Z,2.77
2023-03-02T19:35:26.956Z,2.83
2023-03-02T19:37:54.586Z,2.70
2023-03-02T19:40:26.097Z,2.80
2023-03-02T19:42:54.646Z,2.80
2023-03-02T19:45:29.291Z,2.80
2023-03-02T19:47:58.138Z,2.80
2023-03-02T19:50:27.594Z,2.90
2023-03-02T19:52:56.065Z,2.80
2023-03-02T19:55:25.132Z,2.80
2023-03-02T19:57:59.436Z,2.80
2023-03-02T20:00:29.790Z,2.80
2023-03-02T20:02:57.648Z,2.97
2023-03-02T20:05:27.385Z,2.90
2023-03-02T20:07:54.854Z,3.00
2023-03-02T20:10:38.480Z,2.83
2023-03-02T20:13:08.055Z,2.80
2023-03-02T20:15:42.055Z,2.90
2023-03-02T20:18:19.760Z,2.80
2023-03-02T20:20:47.050Z,2.93
2023-03-02T20:23:15.058Z,2.80
2023-03-02T20:25:42.582Z,2.90
2023-03-02T20:28:13.835Z,2.93
2023-03-02T20:30:53.767Z,3.00
2023-03-02T20:33:31.659Z,2.90
2023-03-02T20:36:02.036Z,2.90
2023-03-02T20:38:46.014Z,2.90
2023-03-02T20:41:14.239Z,2.90
2023-03-02T20:43:43.364Z,2.90
2023-03-02T20:46:24.406Z,2.83
2023-03-02T20:48:53.367Z,2.90
2023-03-02T20:51:21.694Z,2.90
2023-03-02T20:53:49.318Z,2.87
2023-03-02T20:56:20.503Z,2.90
2023-03-02T20:58:49.215Z,2.83
2023-03-02T21:01:20.137Z,2.90
2023-03-02T21:03:47.362Z,2.90
2023-03-02T21:06:15.702Z,3.00
2023-03-02T21:08:43.762Z,2.90
2023-03-02T21:11:19.364Z,2.87
2023-03-02T21:13:48.470Z,3.07
2023-03-02T21:16:23.799Z,3.00
2023-03-02T21:18:51.732Z,3.00
2023-03-02T21:21:20.257Z,3.00
2023-03-02T21:23:50.219Z,3.00
2023-03-02T21:26:19.532Z,3.00
2023-03-02T21:28:47.264Z,3.17
2023-03-02T21:31:18.095Z,2.97
2023-03-02T21:33:46.381Z,2.93
2023-03-02T21:36:23.475Z,2.97
2023-03-02T21:38:57.640Z,2.93
2023-03-02T21:45:00.727Z,3.00
2023-03-02T21:47:27.816Z,2.90
2023-03-02T21:49:54.808Z,3.00
2023-03-02T21:52:22.277Z,2.97
2023-03-02T21:54:51.149Z,2.90
2023-03-02T22:00:43.758Z,3.00
2023-03-02T22:29:32.720Z,3.10
2023-03-02T22:32:35.266Z,3.10
2023-03-02T22:35:26.314Z,3.07
2023-03-02T22:38:07.615Z,3.07
2023-03-02T22:40:36.088Z,3.10
2023-03-02T22:43:31.093Z,3.10
2023-03-02T22:46:21.642Z,3.20
2023-03-02T22:48:52.460Z,3.20
2023-03-02T22:51:30.745Z,3.10
2023-03-02T22:54:00.702Z,3.10
2023-03-02T22:56:41.094Z,3.13
2023-03-02T22:59:26.785Z,3.10
2023-03-02T23:02:08.333Z,3.03
2023-03-02T23:04:39.377Z,3.17
2023-03-02T23:07:23.033Z,3.13
2023-03-02T23:09:50.135Z,3.10
2023-03-02T23:12:27.165Z,3.10
2023-03-02T23:14:57.671Z,3.10
2023-03-02T23:17:40.995Z,3.10
2023-03-02T23:20:13.373Z,3.10
2023-03-02T23:22:41.040Z,3.13
2023-03-02T23:25:08.794Z,3.10
2023-03-02T23:27:36.391Z,3.03
2023-03-02T23:30:05.885Z,3.10
2023-03-02T23:32:33.386Z,3.13
2023-03-02T23:35:00.840Z,3.10
2023-03-02T23:37:27.950Z,3.10
2023-03-02T23:39:55.050Z,3.10
2023-03-02T23:42:22.487Z,3.10
2023-03-02T23:44:49.464Z,3.10
2023-03-02T23:47:17.006Z,3.03
2023-03-02T23:49:43.962Z,3.07
2023-03-02T23:52:11.446Z,3.03
2023-03-02T23:54:38.379Z,3.10
2023-03-02T23:57:05.863Z,3.10
2023-03-02T23:59:33.292Z,3.03
